createdAt,value
2022-11-23T00:01:29.997Z,66.85
2022-11-23T00:03:58.960Z,66.79
2022-11-23T00:06:26.616Z,66.80
2022-11-23T00:08:54.528Z,66.68
2022-11-23T00:11:23.601Z,66.81
2022-11-23T00:13:51.347Z,66.81
2022-11-23T00:16:30.267Z,67.19
2022-11-23T00:18:59.562Z,67.16
2022-11-23T00:21:28.601Z,67.06
2022-11-23T00:23:55.747Z,66.54
2022-11-23T00:26:22.922Z,66.68
2022-11-23T00:28:50.114Z,66.37
2022-11-23T00:31:19.459Z,66.41
2022-11-23T00:33:54.718Z,66.45
2022-11-23T00:36:24.089Z,66.31
2022-11-23T00:38:54.770Z,66.90
2022-11-23T00:41:24.486Z,67.37
2022-11-23T00:43:51.845Z,66.81
2022-11-23T00:46:24.018Z,67.86
2022-11-23T00:48:53.047Z,67.63
2022-11-23T00:51:23.478Z,67.89
2022-11-23T00:53:51.665Z,67.65
2022-11-23T00:56:20.878Z,67.82
2022-11-23T00:58:56.039Z,68.43
2022-11-23T01:01:26.297Z,68.31
2022-11-23T01:03:56.459Z,68.44
2022-11-23T01:06:29.206Z,68.60
2022-11-23T01:09:02.660Z,68.77
2022-11-23T01:11:31.319Z,68.86
2022-11-23T01:13:58.758Z,68.98
2022-11-23T01:16:38.079Z,68.83
2022-11-23T01:19:08.478Z,68.85
2022-11-23T01:21:36.918Z,68.59
2022-11-23T01:24:13.138Z,69.57
2022-11-23T01:26:41.200Z,68.69
2022-11-23T01:29:08.840Z,69.31
2022-11-23T01:31:43.204Z,69.89
2022-11-23T01:34:16.317Z,69.93
2022-11-23T01:36:44.442Z,68.60
2022-11-23T01:39:12.499Z,69.45
2022-11-23T01:41:41.382Z,69.87
2022-11-23T01:44:32.179Z,70.44
2022-11-23T01:47:01.558Z,68.95
2022-11-23T01:49:41.418Z,69.31
2022-11-23T01:52:15.379Z,70.21
2022-11-23T01:54:49.080Z,70.38
2022-11-23T01:57:40.982Z,69.98
2022-11-23T02:00:08.879Z,69.49
2022-11-23T02:02:50.319Z,70.58
2022-11-23T02:05:19.899Z,70.33
2022-11-23T02:07:49.673Z,69.73
2022-11-23T02:10:17.648Z,70.57
2022-11-23T02:12:44.710Z,70.67
2022-11-23T02:15:12.744Z,71.32
2022-11-23T02:17:42.280Z,71.28
2022-11-23T02:20:16.798Z,70.50
2022-11-23T02:23:13.128Z,70.97
2022-11-23T02:25:51.501Z,71.18
2022-11-23T02:28:33.119Z,71.28
2022-11-23T02:31:01.619Z,71.47
2022-11-23T02:33:29.547Z,71.49
2022-11-23T02:36:00.587Z,71.06
2022-11-23T02:38:34.320Z,71.35
2022-11-23T02:41:01.540Z,71.49
2022-11-23T02:43:28.689Z,71.31
2022-11-23T02:46:02.961Z,71.51
2022-11-23T02:48:29.989Z,71.37
2022-11-23T02:50:56.900Z,71.62
2022-11-23T02:53:24.460Z,71.14
2022-11-23T02:55:53.519Z,71.43
2022-11-23T02:58:20.579Z,71.72
2022-11-23T03:00:47.683Z,71.66
2022-11-23T03:03:19.146Z,71.35
2022-11-23T03:05:46.499Z,71.49
2022-11-23T03:08:13.499Z,71.52
2022-11-23T03:10:41.098Z,71.86
2022-11-23T03:13:08.880Z,72.10
2022-11-23T03:15:38.139Z,72.19
2022-11-23T03:18:06.066Z,72.05
2022-11-23T03:20:35.038Z,71.67
2022-11-23T03:23:02.040Z,71.61
2022-11-23T03:25:29.117Z,71.84
2022-11-23T03:27:58.420Z,71.77
2022-11-23T03:30:25.459Z,71.82
2022-11-23T03:32:53.799Z,71.92
2022-11-23T03:35:21.148Z,71.65
2022-11-23T03:38:06.783Z,72.06
2022-11-23T03:40:34.644Z,71.89
2022-11-23T03:43:25.101Z,72.19
2022-11-23T03:45:52.679Z,71.48
2022-11-23T03:48:19.906Z,71.55
2022-11-23T03:50:49.358Z,71.31
2022-11-23T03:53:16.465Z,71.98
2022-11-23T03:55:46.680Z,72.13
2022-11-23T03:58:15.279Z,72.05
2022-11-23T04:00:42.880Z,72.13
2022-11-23T04:03:12.919Z,71.92
2022-11-23T04:05:58.479Z,71.91
2022-11-23T04:08:34.486Z,72.30
2022-11-23T04:11:07.008Z,72.13
2022-11-23T04:13:39.680Z,72.19
2022-11-23T04:16:08.518Z,72.38
2022-11-23T04:18:36.618Z,72.43
2022-11-23T04:21:04.680Z,72.74
2022-11-23T04:23:31.918Z,71.92
2022-11-23T04:25:58.939Z,72.25
2022-11-23T04:28:26.100Z,72.70
2022-11-23T04:30:53.686Z,72.37
2022-11-23T04:33:20.787Z,72.53
2022-11-23T04:35:47.860Z,72.40
2022-11-23T04:38:15.400Z,72.46
2022-11-23T04:40:43.119Z,72.36
2022-11-23T04:43:10.806Z,72.64
2022-11-23T04:45:42.380Z,72.62
2022-11-23T04:48:17.478Z,71.82
2022-11-23T04:50:46.771Z,71.90
2022-11-23T04:53:19.518Z,72.37
2022-11-23T04:55:47.861Z,71.83
2022-11-23T04:58:16.878Z,72.09
2022-11-23T05:00:45.153Z,71.88
2022-11-23T05:03:13.939Z,72.21
2022-11-23T05:05:42.698Z,72.32
2022-11-23T05:08:10.322Z,72.33
2022-11-23T05:10:57.999Z,72.54
2022-11-23T05:13:25.686Z,72.09
2022-11-23T05:15:54.699Z,72.22
2022-11-23T05:18:26.882Z,72.04
2022-11-23T05:20:54.773Z,72.10
2022-11-23T05:23:22.693Z,71.72
2022-11-23T05:25:52.503Z,71.73
2022-11-23T05:31:13.174Z,71.77
2022-11-23T05:33:42.174Z,71.84
2022-11-23T05:36:14.087Z,71.50
2022-11-23T05:38:43.054Z,71.96
2022-11-23T05:41:19.696Z,71.67
2022-11-23T05:43:49.095Z,71.17
2022-11-23T05:46:22.063Z,71.10
2022-11-23T05:48:49.173Z,71.27
2022-11-23T05:51:16.306Z,71.38
2022-11-23T05:53:45.294Z,71.45
2022-11-23T05:56:39.987Z,71.73
2022-11-23T05:59:15.349Z,71.67
2022-11-23T06:01:48.778Z,71.79
2022-11-23T06:04:24.026Z,71.63
2022-11-23T06:06:51.174Z,71.90
2022-11-23T06:09:18.337Z,71.92
2022-11-23T06:11:48.574Z,71.66
2022-11-23T06:14:20.741Z,71.76
2022-11-23T06:16:48.782Z,71.69
2022-11-23T06:19:33.022Z,71.62
2022-11-23T06:22:01.907Z,71.88
2022-11-23T06:24:32.774Z,71.52
2022-11-23T06:27:18.689Z,71.18
2022-11-23T06:29:48.813Z,70.57
2022-11-23T06:32:16.412Z,69.58
2022-11-23T06:34:43.773Z,69.23
2022-11-23T06:37:11.181Z,68.96
2022-11-23T06:39:38.493Z,68.51
2022-11-23T06:42:36.573Z,68.49
2022-11-23T06:44:54.655Z,68.48
2022-11-23T06:47:26.248Z,68.58
2022-11-23T06:49:55.735Z,68.51
2022-11-23T06:52:27.533Z,68.26
2022-11-23T06:54:55.055Z,67.44
2022-11-23T06:57:24.455Z,67.23
2022-11-23T06:59:52.013Z,67.27
2022-11-23T07:02:24.855Z,67.05
2022-11-23T07:04:55.276Z,67.12
2022-11-23T07:07:22.663Z,66.81
2022-11-23T07:10:01.594Z,66.92
2022-11-23T07:12:39.334Z,66.55
2022-11-23T07:15:07.704Z,65.79
2022-11-23T07:17:41.375Z,65.54
2022-11-23T07:20:11.774Z,65.34
2022-11-23T07:22:39.813Z,64.81
2022-11-23T07:25:08.179Z,63.80
2022-11-23T07:27:35.452Z,63.47
2022-11-23T07:30:03.974Z,63.28
2022-11-23T07:32:31.213Z,63.24
2022-11-23T07:34:58.378Z,62.34
2022-11-23T07:37:26.815Z,62.25
2022-11-23T07:39:57.964Z,61.95
2022-11-23T07:42:35.579Z,61.72
2022-11-23T07:45:07.973Z,61.63
2022-11-23T07:47:37.854Z,61.01
2022-11-23T07:50:10.297Z,60.79
2022-11-23T07:52:37.972Z,60.97
2022-11-23T07:55:06.218Z,61.10
2022-11-23T07:57:33.505Z,61.06
2022-11-23T08:00:00.656Z,60.68
2022-11-23T08:02:27.973Z,59.80
2022-11-23T08:04:55.862Z,58.47
2022-11-23T08:07:23.198Z,58.77
2022-11-23T08:09:50.857Z,59.15
2022-11-23T08:12:18.013Z,58.35
2022-11-23T08:14:45.176Z,59.32
2022-11-23T08:17:12.375Z,58.35
2022-11-23T08:19:39.572Z,58.57
2022-11-23T08:22:06.694Z,58.35
2022-11-23T08:24:34.353Z,58.63
2022-11-23T08:27:01.934Z,58.54
2022-11-23T08:29:30.173Z,57.67
2022-11-23T08:31:57.458Z,57.64
2022-11-23T08:34:24.667Z,57.78
2022-11-23T08:36:51.855Z,57.54
2022-11-23T08:39:19.750Z,56.66
2022-11-23T08:41:47.017Z,56.93
2022-11-23T08:44:14.296Z,56.83
2022-11-23T08:46:41.577Z,56.95
2022-11-23T08:49:08.734Z,56.62
2022-11-23T08:51:36.253Z,56.31
2022-11-23T08:54:03.456Z,56.45
2022-11-23T08:56:30.697Z,55.85
2022-11-23T08:58:58.213Z,55.68
2022-11-23T09:01:25.530Z,55.58
2022-11-23T09:03:54.860Z,55.30
2022-11-23T09:06:29.273Z,55.06
2022-11-23T09:08:57.296Z,55.24
2022-11-23T09:11:25.933Z,54.89
2022-11-23T09:13:53.574Z,55.77
2022-11-23T09:16:22.613Z,55.42
2022-11-23T09:18:50.420Z,54.35
2022-11-23T09:21:17.732Z,54.59
2022-11-23T09:23:44.933Z,54.43
2022-11-23T09:26:12.173Z,54.30
2022-11-23T09:28:44.547Z,54.09
2022-11-23T09:31:12.374Z,53.72
2022-11-23T09:33:39.653Z,53.01
2022-11-23T09:36:07.173Z,53.76
2022-11-23T09:38:54.993Z,52.59
2022-11-23T09:41:33.493Z,53.18
2022-11-23T09:44:08.223Z,51.99
2022-11-23T09:47:01.176Z,52.57
2022-11-23T09:50:03.544Z,52.47
2022-11-23T09:52:31.933Z,52.32
2022-11-23T09:55:03.814Z,51.56
2022-11-23T09:57:34.495Z,52.15
2022-11-23T10:00:19.096Z,51.15
2022-11-23T10:02:47.535Z,51.36
2022-11-23T10:05:24.494Z,52.34
2022-11-23T10:08:12.376Z,52.39
2022-11-23T10:10:49.373Z,51.81
2022-11-23T10:13:31.615Z,51.88
2022-11-23T10:16:32.259Z,51.63
2022-11-23T10:19:21.654Z,51.54
2022-11-23T10:22:16.253Z,52.03
2022-11-23T10:24:50.417Z,52.44
2022-11-23T10:27:22.772Z,51.50
2022-11-23T10:29:52.703Z,51.24
2022-11-23T10:32:25.653Z,51.82
2022-11-23T10:35:12.413Z,52.01
2022-11-23T10:37:43.293Z,52.04
2022-11-23T10:40:19.376Z,52.28
2022-11-23T10:42:54.973Z,52.34
2022-11-23T10:45:25.335Z,51.95
2022-11-23T10:48:00.514Z,52.14
2022-11-23T10:50:41.016Z,51.65
2022-11-23T10:53:26.553Z,52.12
2022-11-23T10:55:58.452Z,51.71
2022-11-23T10:58:36.494Z,51.45
2022-11-23T11:01:07.458Z,51.54
2022-11-23T11:03:35.492Z,51.32
2022-11-23T11:06:11.362Z,51.41
2022-11-23T11:09:10.870Z,51.94
2022-11-23T11:11:47.784Z,51.30
2022-11-23T11:14:19.014Z,51.09
2022-11-23T11:16:51.015Z,50.82
2022-11-23T11:19:36.938Z,50.85
2022-11-23T11:22:28.293Z,50.58
2022-11-23T11:24:55.853Z,50.89
2022-11-23T11:27:24.942Z,50.30
2022-11-23T11:29:55.739Z,50.26
2022-11-23T11:32:47.933Z,50.24
2022-11-23T11:35:21.166Z,50.74
2022-11-23T11:37:51.733Z,51.20
2022-11-23T11:40:22.176Z,52.17
2022-11-23T11:42:58.379Z,52.32
2022-11-23T11:45:33.420Z,51.69
2022-11-23T11:48:08.425Z,52.67
2022-11-23T11:50:57.813Z,52.51
2022-11-23T11:53:33.578Z,53.24
2022-11-23T11:56:15.773Z,53.49
2022-11-23T11:58:56.013Z,53.46
2022-11-23T12:13:26.294Z,56.82
2022-11-23T12:16:11.413Z,58.21
2022-11-23T12:19:05.294Z,57.72
2022-11-23T12:21:58.473Z,57.76
2022-11-23T12:24:31.534Z,57.74
2022-11-23T12:27:48.503Z,57.91
2022-11-23T12:30:18.693Z,58.04
2022-11-23T12:33:00.973Z,57.58
2022-11-23T12:35:47.218Z,58.05
2022-11-23T12:38:21.813Z,57.45
2022-11-23T12:41:07.302Z,57.02
2022-11-23T12:43:37.295Z,57.26
2022-11-23T12:46:22.832Z,57.43
2022-11-23T12:48:56.973Z,56.81
2022-11-23T12:51:30.334Z,56.75
2022-11-23T12:54:35.275Z,56.81
2022-11-23T12:57:09.974Z,57.01
2022-11-23T12:59:49.974Z,56.83
2022-11-23T13:02:57.668Z,56.91
2022-11-23T13:05:48.573Z,56.56
2022-11-23T13:08:30.683Z,56.41
2022-11-23T13:11:34.055Z,56.42
2022-11-23T13:14:22.576Z,56.04
2022-11-23T13:17:22.843Z,56.39
2022-11-23T13:20:15.414Z,56.71
2022-11-23T13:22:46.199Z,56.20
2022-11-23T13:25:13.373Z,56.80
2022-11-23T13:27:49.733Z,56.24
2022-11-23T13:33:22.289Z,56.18
2022-11-23T13:36:00.930Z,56.18
2022-11-23T13:38:37.058Z,55.88
2022-11-23T13:41:05.215Z,55.42
2022-11-23T13:43:37.214Z,55.21
2022-11-23T13:46:23.493Z,55.57
2022-11-23T13:48:57.527Z,55.51
2022-11-23T13:51:36.306Z,54.96
2022-11-23T13:54:21.094Z,54.99
2022-11-23T13:56:59.413Z,55.08
2022-11-23T13:59:35.093Z,55.23
2022-11-23T14:02:08.726Z,54.47
2022-11-23T14:04:41.014Z,54.87
2022-11-23T14:07:29.833Z,54.52
2022-11-23T14:10:29.574Z,55.23
2022-11-23T14:13:17.017Z,55.24
2022-11-23T14:15:53.031Z,55.43
2022-11-23T14:18:32.295Z,55.47
2022-11-23T14:21:08.983Z,55.77
2022-11-23T14:24:05.734Z,55.88
2022-11-23T14:26:46.748Z,56.14
2022-11-23T14:29:24.737Z,56.05
2022-11-23T14:32:10.805Z,56.78
2022-11-23T14:34:47.262Z,57.14
2022-11-23T14:37:40.296Z,57.64
2022-11-23T14:40:28.495Z,57.19
2022-11-23T14:42:57.500Z,57.27
2022-11-23T14:45:29.841Z,57.52
2022-11-23T14:47:57.103Z,57.71
2022-11-23T14:50:27.335Z,57.81
2022-11-23T14:52:58.256Z,58.17
2022-11-23T14:55:28.621Z,58.48
2022-11-23T14:58:03.142Z,58.76
2022-11-23T15:00:43.814Z,58.57
2022-11-23T15:06:16.869Z,59.06
2022-11-23T15:08:46.778Z,59.10
2022-11-23T15:11:21.385Z,59.46
2022-11-23T15:13:51.894Z,59.46
2022-11-23T15:16:20.824Z,59.80
2022-11-23T15:18:49.180Z,60.33
2022-11-23T15:21:28.315Z,60.79
2022-11-23T15:23:58.053Z,60.99
2022-11-23T15:29:53.935Z,60.73
2022-11-23T15:32:31.495Z,61.21
2022-11-23T15:35:07.485Z,61.17
2022-11-23T15:37:47.222Z,61.17
2022-11-23T15:40:16.815Z,61.31
2022-11-23T15:42:45.695Z,61.44
2022-11-23T15:45:34.979Z,61.56
2022-11-23T15:48:22.055Z,61.73
2022-11-23T15:50:55.058Z,61.83
2022-11-23T15:53:26.511Z,62.03
2022-11-23T15:55:57.426Z,62.15
2022-11-23T15:58:24.856Z,62.27
2022-11-23T16:01:06.418Z,62.27
2022-11-23T16:03:42.106Z,62.12
2022-11-23T16:06:37.344Z,62.09
2022-11-23T16:12:27.867Z,62.14
2022-11-23T16:14:57.191Z,61.82
2022-11-23T16:17:29.460Z,61.72
2022-11-23T16:20:05.333Z,61.82
2022-11-23T16:22:37.014Z,61.72
2022-11-23T16:25:09.214Z,61.76
2022-11-23T16:27:37.455Z,61.63
2022-11-23T16:30:05.236Z,61.66
2022-11-23T16:32:32.586Z,62.17
2022-11-23T16:35:17.096Z,62.08
2022-11-23T16:37:44.858Z,62.09
2022-11-23T16:40:12.733Z,62.42
2022-11-23T16:42:40.015Z,62.17
2022-11-23T16:45:07.895Z,61.86
2022-11-23T16:47:35.174Z,61.91
2022-11-23T16:50:02.419Z,62.22
2022-11-23T16:52:29.619Z,62.64
2022-11-23T16:54:56.695Z,62.82
2022-11-23T16:57:23.855Z,62.57
2022-11-23T16:59:51.177Z,62.75
2022-11-23T17:02:18.811Z,62.53
2022-11-23T17:04:46.121Z,62.60
2022-11-23T17:07:13.749Z,62.69
2022-11-23T17:09:41.735Z,62.44
2022-11-23T17:12:16.191Z,62.41
2022-11-23T17:14:47.355Z,62.47
2022-11-23T17:17:23.737Z,62.00
2022-11-23T17:19:51.856Z,62.29
2022-11-23T17:22:20.539Z,62.20
2022-11-23T17:24:49.072Z,61.99
2022-11-23T17:27:20.494Z,61.80
2022-11-23T17:29:51.328Z,62.27
2022-11-23T17:32:18.511Z,62.10
2022-11-23T17:34:45.507Z,62.02
2022-11-23T17:37:20.264Z,62.06
2022-11-23T17:39:48.623Z,61.63
2022-11-23T17:42:15.994Z,61.91
2022-11-23T17:44:43.184Z,61.97
2022-11-23T17:47:20.615Z,62.33
2022-11-23T17:49:47.734Z,62.25
2022-11-23T17:52:14.855Z,62.30
2022-11-23T17:54:41.896Z,62.18
2022-11-23T17:57:17.377Z,62.86
2022-11-23T17:59:45.385Z,62.88
2022-11-23T18:02:12.623Z,62.72
2022-11-23T18:04:39.745Z,62.98
2022-11-23T18:07:07.861Z,62.94
2022-11-23T18:09:35.544Z,62.89
2022-11-23T18:12:02.900Z,62.91
2022-11-23T18:14:30.097Z,62.64
2022-11-23T18:16:57.417Z,62.97
2022-11-23T18:19:24.734Z,62.89
2022-11-23T18:21:51.895Z,62.74
2022-11-23T18:24:19.058Z,63.30
2022-11-23T18:26:46.096Z,63.26
2022-11-23T18:29:17.056Z,63.44
2022-11-23T18:31:44.652Z,63.44
2022-11-23T18:34:12.149Z,63.42
2022-11-23T18:36:39.263Z,63.34
2022-11-23T18:39:06.814Z,63.19
2022-11-23T18:41:34.016Z,63.06
2022-11-23T18:44:01.192Z,63.27
2022-11-23T18:46:29.730Z,63.31
2022-11-23T18:48:57.615Z,63.30
2022-11-23T18:51:24.817Z,63.20
2022-11-23T18:53:53.304Z,63.19
2022-11-23T18:56:20.693Z,63.20
2022-11-23T18:58:48.257Z,63.74
2022-11-23T19:01:18.671Z,63.73
2022-11-23T19:03:48.144Z,63.85
2022-11-23T19:06:16.403Z,64.05
2022-11-23T19:08:47.574Z,64.29
2022-11-23T19:11:20.214Z,64.08
2022-11-23T19:13:50.383Z,63.89
2022-11-23T19:16:23.319Z,63.94
2022-11-23T19:18:55.177Z,64.32
2022-11-23T19:21:24.586Z,64.80
2022-11-23T19:23:53.776Z,64.56
2022-11-23T19:26:22.149Z,65.10
2022-11-23T19:28:50.735Z,64.96
2022-11-23T19:31:18.868Z,64.77
2022-11-23T19:33:47.657Z,64.99
2022-11-23T19:36:20.271Z,64.92
2022-11-23T19:38:49.058Z,65.02
2022-11-23T19:41:17.295Z,65.24
2022-11-23T19:43:44.854Z,65.34
2022-11-23T19:46:13.985Z,65.55
2022-11-23T19:48:42.387Z,65.75
2022-11-23T19:51:14.741Z,65.51
2022-11-23T19:54:20.978Z,65.49
2022-11-23T19:56:50.377Z,65.41
2022-11-23T19:59:17.856Z,65.56
2022-11-23T20:01:45.101Z,65.38
2022-11-23T20:04:12.269Z,65.12
2022-11-23T20:06:42.711Z,65.04
2022-11-23T20:09:23.221Z,65.42
2022-11-23T20:11:51.708Z,65.36
2022-11-23T20:14:19.722Z,65.71
2022-11-23T20:16:48.078Z,65.61
2022-11-23T20:19:15.419Z,65.70
2022-11-23T20:21:42.506Z,65.77
2022-11-23T20:24:14.417Z,65.81
2022-11-23T20:26:42.574Z,65.94
2022-11-23T20:29:12.776Z,65.78
2022-11-23T20:31:40.982Z,66.00
2022-11-23T20:34:10.650Z,65.86
2022-11-23T20:36:40.577Z,66.16
2022-11-23T20:39:11.135Z,65.86
2022-11-23T20:41:39.022Z,66.12
2022-11-23T20:44:14.703Z,65.84
2022-11-23T20:49:30.552Z,66.12
2022-11-23T20:51:58.180Z,66.11
2022-11-23T20:54:25.438Z,66.04
2022-11-23T20:56:52.613Z,65.89
2022-11-23T20:59:20.535Z,66.13
2022-11-23T21:01:47.811Z,65.79
2022-11-23T21:04:15.139Z,66.15
2022-11-23T21:06:42.593Z,66.34
2022-11-23T21:09:11.401Z,66.27
2022-11-23T21:11:57.226Z,66.35
2022-11-23T21:14:28.270Z,66.41
2022-11-23T21:16:59.284Z,66.63
2022-11-23T21:19:30.782Z,66.70
2022-11-23T21:21:59.229Z,66.19
2022-11-23T21:24:26.578Z,66.40
2022-11-23T21:26:54.232Z,66.20
2022-11-23T21:29:22.382Z,66.45
2022-11-23T21:31:50.049Z,65.88
2022-11-23T21:34:21.679Z,66.09
2022-11-23T21:36:49.855Z,66.00
2022-11-23T21:39:18.021Z,66.10
2022-11-23T21:41:46.495Z,66.00
2022-11-23T21:44:13.783Z,66.13
2022-11-23T21:46:41.635Z,65.69
2022-11-23T21:49:10.016Z,65.85
2022-11-23T21:51:38.255Z,66.05
2022-11-23T21:54:06.975Z,65.84
2022-11-23T21:56:34.422Z,65.64
2022-11-23T21:59:01.732Z,65.80
2022-11-23T22:01:33.693Z,65.44
2022-11-23T22:04:06.696Z,65.03
2022-11-23T22:06:33.933Z,65.27
2022-11-23T22:09:01.455Z,64.88
2022-11-23T22:11:33.975Z,64.82
2022-11-23T22:14:05.175Z,64.54
2022-11-23T22:16:37.174Z,64.85
2022-11-23T22:19:05.053Z,64.63
2022-11-23T22:21:37.256Z,64.08
2022-11-23T22:24:05.734Z,64.13
2022-11-23T22:26:33.014Z,64.40
2022-11-23T22:29:02.911Z,64.75
2022-11-23T22:31:34.232Z,64.95
2022-11-23T22:34:03.300Z,64.99
2022-11-23T22:36:30.786Z,65.33
2022-11-23T22:39:02.802Z,65.51
2022-11-23T22:41:33.659Z,65.88
2022-11-23T22:44:00.777Z,65.58
2022-11-23T22:46:28.571Z,65.93
2022-11-23T22:48:59.634Z,65.58
2022-11-23T22:51:28.935Z,65.51
2022-11-23T22:53:58.256Z,65.38
2022-11-23T22:56:26.494Z,65.03
2022-11-23T22:58:53.975Z,66.21
2022-11-23T23:01:23.499Z,65.93
2022-11-23T23:03:58.611Z,65.97
2022-11-23T23:06:28.820Z,66.12
2022-11-23T23:08:58.538Z,66.23
2022-11-23T23:11:30.374Z,65.92
2022-11-23T23:13:58.495Z,65.76
2022-11-23T23:16:27.008Z,65.68
2022-11-23T23:18:58.542Z,65.32
2022-11-23T23:21:27.134Z,65.34
2022-11-23T23:23:56.858Z,65.34
2022-11-23T23:26:26.461Z,65.60
2022-11-23T23:28:57.694Z,65.26
2022-11-23T23:31:25.691Z,65.13
2022-11-23T23:33:53.975Z,65.03
2022-11-23T23:36:21.855Z,65.24
2022-11-23T23:38:50.062Z,65.34
2022-11-23T23:41:17.344Z,64.78
2022-11-23T23:43:44.573Z,64.78
2022-11-23T23:46:13.595Z,64.84
2022-11-23T23:48:41.591Z,64.89
2022-11-23T23:51:17.695Z,64.48
2022-11-23T23:53:46.216Z,64.73
2022-11-23T23:56:14.774Z,64.87
2022-11-23T23:58:42.134Z,64.50
